sensor_id;sensor_type;location;lat;lon;timestamp;temperature;humidity
30594;DHT22;33199;47.590;8.300;2022-10-26T00:00:08;17.80;74.10
30594;DHT22;33199;47.590;8.300;2022-10-26T00:02:34;17.80;74.10
30594;DHT22;33199;47.590;8.300;2022-10-26T00:04:59;17.80;74.10
30594;DHT22;33199;47.590;8.300;2022-10-26T00:07:27;17.80;74.00
30594;DHT22;33199;47.590;8.300;2022-10-26T00:09:53;17.80;74.10
30594;DHT22;33199;47.590;8.300;2022-10-26T00:12:19;17.80;74.10
30594;DHT22;33199;47.590;8.300;2022-10-26T00:14:44;17.80;74.10
30594;DHT22;33199;47.590;8.300;2022-10-26T00:17:10;17.80;74.10
30594;DHT22;33199;47.590;8.300;2022-10-26T00:19:35;17.80;74.10
30594;DHT22;33199;47.590;8.300;2022-10-26T00:22:02;17.70;74.00
30594;DHT22;33199;47.590;8.300;2022-10-26T00:24:28;17.80;74.10
30594;DHT22;33199;47.590;8.300;2022-10-26T00:26:53;17.80;74.20
30594;DHT22;33199;47.590;8.300;2022-10-26T00:29:19;17.80;74.10
30594;DHT22;33199;47.590;8.300;2022-10-26T00:31:45;17.80;74.90
30594;DHT22;33199;47.590;8.300;2022-10-26T00:34:10;17.70;74.10
30594;DHT22;33199;47.590;8.300;2022-10-26T00:36:36;17.80;74.20
30594;DHT22;33199;47.590;8.300;2022-10-26T00:39:02;17.80;74.10
30594;DHT22;33199;47.590;8.300;2022-10-26T00:41:32;17.80;74.10
30594;DHT22;33199;47.590;8.300;2022-10-26T00:43:58;17.80;74.10
30594;DHT22;33199;47.590;8.300;2022-10-26T00:46:25;17.70;74.10
30594;DHT22;33199;47.590;8.300;2022-10-26T00:48:55;17.80;74.20
30594;DHT22;33199;47.590;8.300;2022-10-26T00:51:24;17.70;74.10
30594;DHT22;33199;47.590;8.300;2022-10-26T00:53:52;17.70;74.10
30594;DHT22;33199;47.590;8.300;2022-10-26T00:56:18;17.70;74.10
30594;DHT22;33199;47.590;8.300;2022-10-26T00:58:44;17.70;74.10
30594;DHT22;33199;47.590;8.300;2022-10-26T01:01:11;17.70;74.10
30594;DHT22;33199;47.590;8.300;2022-10-26T01:03:37;17.70;74.10
30594;DHT22;33199;47.590;8.300;2022-10-26T01:06:04;17.70;74.10
30594;DHT22;33199;47.590;8.300;2022-10-26T01:08:30;17.70;74.10
30594;DHT22;33199;47.590;8.300;2022-10-26T01:10:57;17.70;74.10
30594;DHT22;33199;47.590;8.300;2022-10-26T01:13:25;17.70;74.10
30594;DHT22;33199;47.590;8.300;2022-10-26T01:16:16;17.70;74.10
30594;DHT22;33199;47.590;8.300;2022-10-26T01:19:01;17.70;74.10
30594;DHT22;33199;47.590;8.300;2022-10-26T01:24:27;17.70;74.20
30594;DHT22;33199;47.590;8.300;2022-10-26T01:32:34;17.70;74.20
30594;DHT22;33199;47.590;8.300;2022-10-26T01:35:09;17.70;74.30
30594;DHT22;33199;47.590;8.300;2022-10-26T01:37:43;17.70;74.20
30594;DHT22;33199;47.590;8.300;2022-10-26T01:40:22;17.60;74.20
30594;DHT22;33199;47.590;8.300;2022-10-26T01:42:52;17.60;74.20
30594;DHT22;33199;47.590;8.300;2022-10-26T01:45:19;17.60;74.20
30594;DHT22;33199;47.590;8.300;2022-10-26T01:47:46;17.60;74.20
30594;DHT22;33199;47.590;8.300;2022-10-26T01:50:12;17.70;74.20
30594;DHT22;33199;47.590;8.300;2022-10-26T01:52:39;17.60;74.20
30594;DHT22;33199;47.590;8.300;2022-10-26T01:58:09;17.60;74.10
30594;DHT22;33199;47.590;8.300;2022-10-26T02:00:39;17.60;74.10
30594;DHT22;33199;47.590;8.300;2022-10-26T02:03:30;17.60;74.10
30594;DHT22;33199;47.590;8.300;2022-10-26T02:06:18;17.60;74.20
30594;DHT22;33199;47.590;8.300;2022-10-26T02:11:42;17.60;74.10
30594;DHT22;33199;47.590;8.300;2022-10-26T02:14:12;17.60;74.20
30594;DHT22;33199;47.590;8.300;2022-10-26T02:17:04;17.60;74.20
30594;DHT22;33199;47.590;8.300;2022-10-26T02:19:48;17.60;74.20
30594;DHT22;33199;47.590;8.300;2022-10-26T02:22:20;17.60;74.30
30594;DHT22;33199;47.590;8.300;2022-10-26T02:24:51;17.60;74.20
30594;DHT22;33199;47.590;8.300;2022-10-26T02:27:20;17.60;74.20
30594;DHT22;33199;47.590;8.300;2022-10-26T02:29:47;17.60;74.10
30594;DHT22;33199;47.590;8.300;2022-10-26T02:32:15;17.60;74.10
30594;DHT22;33199;47.590;8.300;2022-10-26T02:34:44;17.60;74.20
30594;DHT22;33199;47.590;8.300;2022-10-26T02:37:12;17.60;74.20
30594;DHT22;33199;47.590;8.300;2022-10-26T02:39:40;17.60;74.20
30594;DHT22;33199;47.590;8.300;2022-10-26T02:42:08;17.60;74.20
30594;DHT22;33199;47.590;8.300;2022-10-26T02:44:50;17.60;74.10
30594;DHT22;33199;47.590;8.300;2022-10-26T02:47:17;17.60;74.10
30594;DHT22;33199;47.590;8.300;2022-10-26T02:49:43;17.60;74.20
30594;DHT22;33199;47.590;8.300;2022-10-26T02:52:22;17.60;74.10
30594;DHT22;33199;47.590;8.300;2022-10-26T02:54:50;17.60;74.10
30594;DHT22;33199;47.590;8.300;2022-10-26T02:57:22;17.60;74.10
30594;DHT22;33199;47.590;8.300;2022-10-26T02:59:49;17.60;74.10
30594;DHT22;33199;47.590;8.300;2022-10-26T03:02:16;17.60;74.20
30594;DHT22;33199;47.590;8.300;2022-10-26T03:04:43;17.50;74.10
30594;DHT22;33199;47.590;8.300;2022-10-26T03:07:09;17.50;74.20
30594;DHT22;33199;47.590;8.300;2022-10-26T03:09:34;17.50;74.10
30594;DHT22;33199;47.590;8.300;2022-10-26T03:12:00;17.50;74.20
30594;DHT22;33199;47.590;8.300;2022-10-26T03:14:26;17.50;74.10
30594;DHT22;33199;47.590;8.300;2022-10-26T03:16:51;17.50;74.10
30594;DHT22;33199;47.590;8.300;2022-10-26T03:19:17;17.50;74.10
30594;DHT22;33199;47.590;8.300;2022-10-26T03:21:42;17.50;74.10
30594;DHT22;33199;47.590;8.300;2022-10-26T03:24:08;17.50;74.00
30594;DHT22;33199;47.590;8.300;2022-10-26T03:26:34;17.50;74.10
30594;DHT22;33199;47.590;8.300;2022-10-26T03:29:00;17.50;74.20
30594;DHT22;33199;47.590;8.300;2022-10-26T03:31:25;17.50;74.20
30594;DHT22;33199;47.590;8.300;2022-10-26T03:33:51;17.50;74.10
30594;DHT22;33199;47.590;8.300;2022-10-26T03:36:16;17.50;74.20
30594;DHT22;33199;47.590;8.300;2022-10-26T03:38:42;17.50;74.20
30594;DHT22;33199;47.590;8.300;2022-10-26T03:41:07;17.50;74.20
30594;DHT22;33199;47.590;8.300;2022-10-26T03:43:33;17.50;74.10
30594;DHT22;33199;47.590;8.300;2022-10-26T03:45:59;17.50;74.10
30594;DHT22;33199;47.590;8.300;2022-10-26T03:48:24;17.50;74.10
30594;DHT22;33199;47.590;8.300;2022-10-26T03:50:50;17.50;74.20
30594;DHT22;33199;47.590;8.300;2022-10-26T03:53:15;17.50;74.10
30594;DHT22;33199;47.590;8.300;2022-10-26T03:55:44;17.50;74.10
30594;DHT22;33199;47.590;8.300;2022-10-26T03:58:09;17.50;74.10
30594;DHT22;33199;47.590;8.300;2022-10-26T04:00:35;17.50;74.10
30594;DHT22;33199;47.590;8.300;2022-10-26T04:03:00;17.50;74.10
30594;DHT22;33199;47.590;8.300;2022-10-26T04:05:27;17.50;74.10
30594;DHT22;33199;47.590;8.300;2022-10-26T04:07:55;17.50;74.20
30594;DHT22;33199;47.590;8.300;2022-10-26T04:10:22;17.50;74.10
30594;DHT22;33199;47.590;8.300;2022-10-26T04:12:48;17.50;74.10
30594;DHT22;33199;47.590;8.300;2022-10-26T04:15:14;17.50;74.10
30594;DHT22;33199;47.590;8.300;2022-10-26T04:17:40;17.50;74.10
30594;DHT22;33199;47.590;8.300;2022-10-26T04:20:06;17.50;74.10
30594;DHT22;33199;47.590;8.300;2022-10-26T04:22:31;17.50;74.10
30594;DHT22;33199;47.590;8.300;2022-10-26T04:24:57;17.50;74.20
30594;DHT22;33199;47.590;8.300;2022-10-26T04:27:22;17.50;74.20
30594;DHT22;33199;47.590;8.300;2022-10-26T04:29:48;17.50;74.10
30594;DHT22;33199;47.590;8.300;2022-10-26T04:32:14;17.50;74.10
30594;DHT22;33199;47.590;8.300;2022-10-26T04:34:39;17.50;74.20
30594;DHT22;33199;47.590;8.300;2022-10-26T04:37:05;17.50;74.10
30594;DHT22;33199;47.590;8.300;2022-10-26T04:39:30;17.50;74.20
30594;DHT22;33199;47.590;8.300;2022-10-26T04:41:56;17.50;74.10
30594;DHT22;33199;47.590;8.300;2022-10-26T04:44:21;17.50;74.20
30594;DHT22;33199;47.590;8.300;2022-10-26T04:46:47;17.50;74.20
30594;DHT22;33199;47.590;8.300;2022-10-26T04:49:12;17.40;74.00
30594;DHT22;33199;47.590;8.300;2022-10-26T04:51:38;17.50;74.10
30594;DHT22;33199;47.590;8.300;2022-10-26T04:54:04;17.40;74.10
30594;DHT22;33199;47.590;8.300;2022-10-26T04:56:30;17.40;74.00
30594;DHT22;33199;47.590;8.300;2022-10-26T04:58:55;17.40;74.00
30594;DHT22;33199;47.590;8.300;2022-10-26T05:01:21;17.40;74.00
30594;DHT22;33199;47.590;8.300;2022-10-26T05:03:51;17.40;74.00
30594;DHT22;33199;47.590;8.300;2022-10-26T05:06:17;17.50;74.20
30594;DHT22;33199;47.590;8.300;2022-10-26T05:08:43;17.40;74.10
30594;DHT22;33199;47.590;8.300;2022-10-26T05:11:09;17.40;74.10
30594;DHT22;33199;47.590;8.300;2022-10-26T05:13:34;17.40;74.10
30594;DHT22;33199;47.590;8.300;2022-10-26T05:16:00;17.40;74.10
30594;DHT22;33199;47.590;8.300;2022-10-26T05:18:25;17.40;74.10
30594;DHT22;33199;47.590;8.300;2022-10-26T05:20:52;17.40;74.10
30594;DHT22;33199;47.590;8.300;2022-10-26T05:23:18;17.40;74.00
30594;DHT22;33199;47.590;8.300;2022-10-26T05:25:44;17.40;74.00
30594;DHT22;33199;47.590;8.300;2022-10-26T05:28:11;17.40;74.10
30594;DHT22;33199;47.590;8.300;2022-10-26T05:30:40;17.40;74.00
30594;DHT22;33199;47.590;8.300;2022-10-26T05:33:08;17.40;74.00
30594;DHT22;33199;47.590;8.300;2022-10-26T05:35:34;17.40;74.00
30594;DHT22;33199;47.590;8.300;2022-10-26T05:38:09;17.40;74.10
30594;DHT22;33199;47.590;8.300;2022-10-26T05:40:34;17.40;74.10
30594;DHT22;33199;47.590;8.300;2022-10-26T05:43:00;17.40;74.10
30594;DHT22;33199;47.590;8.300;2022-10-26T05:45:27;17.40;74.10
30594;DHT22;33199;47.590;8.300;2022-10-26T05:47:53;17.40;74.10
30594;DHT22;33199;47.590;8.300;2022-10-26T05:50:18;17.40;74.10
30594;DHT22;33199;47.590;8.300;2022-10-26T05:52:45;17.40;74.10
30594;DHT22;33199;47.590;8.300;2022-10-26T05:55:14;17.40;74.00
30594;DHT22;33199;47.590;8.300;2022-10-26T05:57:41;17.40;74.00
30594;DHT22;33199;47.590;8.300;2022-10-26T06:00:09;17.40;74.10
30594;DHT22;33199;47.590;8.300;2022-10-26T06:05:31;17.40;74.10
30594;DHT22;33199;47.590;8.300;2022-10-26T06:07:58;17.40;74.10
30594;DHT22;33199;47.590;8.300;2022-10-26T06:10:24;17.40;74.10
30594;DHT22;33199;47.590;8.300;2022-10-26T06:12:50;17.40;74.00
30594;DHT22;33199;47.590;8.300;2022-10-26T06:15:20;17.30;74.00
30594;DHT22;33199;47.590;8.300;2022-10-26T06:23:54;17.30;74.10
30594;DHT22;33199;47.590;8.300;2022-10-26T06:26:44;17.40;74.10
30594;DHT22;33199;47.590;8.300;2022-10-26T06:32:14;17.40;74.20
30594;DHT22;33199;47.590;8.300;2022-10-26T06:34:44;17.30;74.10
30594;DHT22;33199;47.590;8.300;2022-10-26T06:37:11;17.40;74.20
30594;DHT22;33199;47.590;8.300;2022-10-26T06:39:41;17.30;74.20
30594;DHT22;33199;47.590;8.300;2022-10-26T06:42:09;17.30;74.10
30594;DHT22;33199;47.590;8.300;2022-10-26T06:44:36;17.30;74.10
30594;DHT22;33199;47.590;8.300;2022-10-26T06:47:06;17.30;74.10
30594;DHT22;33199;47.590;8.300;2022-10-26T06:52:39;17.30;74.00
30594;DHT22;33199;47.590;8.300;2022-10-26T06:55:16;17.30;74.00
30594;DHT22;33199;47.590;8.300;2022-10-26T06:57:43;17.30;74.10
30594;DHT22;33199;47.590;8.300;2022-10-26T07:00:22;17.30;74.10
30594;DHT22;33199;47.590;8.300;2022-10-26T07:02:49;17.30;74.10
30594;DHT22;33199;47.590;8.300;2022-10-26T07:05:15;17.30;74.10
30594;DHT22;33199;47.590;8.300;2022-10-26T07:07:45;17.30;74.10
30594;DHT22;33199;47.590;8.300;2022-10-26T07:10:12;17.30;74.10
30594;DHT22;33199;47.590;8.300;2022-10-26T07:12:38;17.30;74.00
30594;DHT22;33199;47.590;8.300;2022-10-26T07:15:05;17.30;74.10
30594;DHT22;33199;47.590;8.300;2022-10-26T07:17:31;17.30;74.00
30594;DHT22;33199;47.590;8.300;2022-10-26T07:19:56;17.30;74.00
30594;DHT22;33199;47.590;8.300;2022-10-26T07:22:22;17.30;74.10
30594;DHT22;33199;47.590;8.300;2022-10-26T07:24:48;17.30;74.00
30594;DHT22;33199;47.590;8.300;2022-10-26T07:27:16;17.30;74.10
30594;DHT22;33199;47.590;8.300;2022-10-26T07:29:41;17.30;74.00
30594;DHT22;33199;47.590;8.300;2022-10-26T07:32:07;17.30;74.10
30594;DHT22;33199;47.590;8.300;2022-10-26T07:34:32;17.30;74.00
30594;DHT22;33199;47.590;8.300;2022-10-26T07:36:59;17.30;74.00
30594;DHT22;33199;47.590;8.300;2022-10-26T07:39:25;17.30;74.00
30594;DHT22;33199;47.590;8.300;2022-10-26T07:41:50;17.30;74.00
30594;DHT22;33199;47.590;8.300;2022-10-26T07:44:16;17.30;74.10
30594;DHT22;33199;47.590;8.300;2022-10-26T07:46:41;17.30;74.00
30594;DHT22;33199;47.590;8.300;2022-10-26T07:49:07;17.30;74.00
30594;DHT22;33199;47.590;8.300;2022-10-26T07:51:33;17.30;74.00
30594;DHT22;33199;47.590;8.300;2022-10-26T07:53:58;17.30;74.10
30594;DHT22;33199;47.590;8.300;2022-10-26T07:56:24;17.30;74.10
30594;DHT22;33199;47.590;8.300;2022-10-26T07:58:51;17.30;74.10
30594;DHT22;33199;47.590;8.300;2022-10-26T08:01:17;17.30;74.10
30594;DHT22;33199;47.590;8.300;2022-10-26T08:03:43;17.30;74.10
30594;DHT22;33199;47.590;8.300;2022-10-26T08:06:08;17.30;74.10
30594;DHT22;33199;47.590;8.300;2022-10-26T08:08:35;17.20;74.10
30594;DHT22;33199;47.590;8.300;2022-10-26T08:11:01;17.20;74.10
30594;DHT22;33199;47.590;8.300;2022-10-26T08:13:27;17.20;75.10
30594;DHT22;33199;47.590;8.300;2022-10-26T08:16:00;17.20;75.00
30594;DHT22;33199;47.590;8.300;2022-10-26T08:18:26;17.20;75.30
30594;DHT22;33199;47.590;8.300;2022-10-26T08:20:52;17.10;75.80
30594;DHT22;33199;47.590;8.300;2022-10-26T08:23:18;17.10;76.30
30594;DHT22;33199;47.590;8.300;2022-10-26T08:25:43;16.90;77.10
30594;DHT22;33199;47.590;8.300;2022-10-26T08:28:09;16.90;77.80
30594;DHT22;33199;47.590;8.300;2022-10-26T08:30:34;16.80;78.00
30594;DHT22;33199;47.590;8.300;2022-10-26T08:33:02;16.80;77.80
30594;DHT22;33199;47.590;8.300;2022-10-26T08:35:28;16.80;77.70
30594;DHT22;33199;47.590;8.300;2022-10-26T08:37:54;16.80;78.30
30594;DHT22;33199;47.590;8.300;2022-10-26T08:40:35;16.70;78.70
30594;DHT22;33199;47.590;8.300;2022-10-26T08:43:09;16.70;78.50
30594;DHT22;33199;47.590;8.300;2022-10-26T08:45:40;16.70;79.00
30594;DHT22;33199;47.590;8.300;2022-10-26T08:48:13;16.60;79.30
30594;DHT22;33199;47.590;8.300;2022-10-26T08:53:40;16.70;80.00
30594;DHT22;33199;47.590;8.300;2022-10-26T08:56:25;16.60;80.00
30594;DHT22;33199;47.590;8.300;2022-10-26T08:58:58;16.70;79.90
30594;DHT22;33199;47.590;8.300;2022-10-26T09:01:25;16.60;80.20
30594;DHT22;33199;47.590;8.300;2022-10-26T09:03:51;16.70;80.40
30594;DHT22;33199;47.590;8.300;2022-10-26T09:11:54;16.70;79.80
30594;DHT22;33199;47.590;8.300;2022-10-26T09:22:17;16.80;79.60
30594;DHT22;33199;47.590;8.300;2022-10-26T09:24:52;16.70;79.40
30594;DHT22;33199;47.590;8.300;2022-10-26T09:27:30;16.80;79.40
30594;DHT22;33199;47.590;8.300;2022-10-26T09:29:59;16.80;79.40
30594;DHT22;33199;47.590;8.300;2022-10-26T09:32:33;16.80;79.20
30594;DHT22;33199;47.590;8.300;2022-10-26T09:35:09;16.80;79.50
30594;DHT22;33199;47.590;8.300;2022-10-26T09:37:41;16.80;79.40
30594;DHT22;33199;47.590;8.300;2022-10-26T09:40:24;16.90;79.50
30594;DHT22;33199;47.590;8.300;2022-10-26T09:43:03;16.90;79.30
30594;DHT22;33199;47.590;8.300;2022-10-26T09:45:36;16.90;79.40
30594;DHT22;33199;47.590;8.300;2022-10-26T09:48:31;16.90;79.00
30594;DHT22;33199;47.590;8.300;2022-10-26T09:50:57;17.00;79.20
30594;DHT22;33199;47.590;8.300;2022-10-26T09:53:25;17.00;78.50
30594;DHT22;33199;47.590;8.300;2022-10-26T09:56:11;17.00;79.10
30594;DHT22;33199;47.590;8.300;2022-10-26T09:58:59;17.10;79.50
30594;DHT22;33199;47.590;8.300;2022-10-26T10:06:45;17.20;78.70
30594;DHT22;33199;47.590;8.300;2022-10-26T10:09:22;17.20;78.40
30594;DHT22;33199;47.590;8.300;2022-10-26T10:17:02;17.30;78.90
30594;DHT22;33199;47.590;8.300;2022-10-26T10:19:33;17.30;78.10
30594;DHT22;33199;47.590;8.300;2022-10-26T10:22:08;17.30;78.70
30594;DHT22;33199;47.590;8.300;2022-10-26T10:24:35;17.30;78.60
30594;DHT22;33199;47.590;8.300;2022-10-26T10:27:14;17.30;78.40
30594;DHT22;33199;47.590;8.300;2022-10-26T10:29:44;17.40;78.50
30594;DHT22;33199;47.590;8.300;2022-10-26T10:32:29;17.40;78.20
30594;DHT22;33199;47.590;8.300;2022-10-26T10:34:58;17.40;78.10
30594;DHT22;33199;47.590;8.300;2022-10-26T10:37:43;17.40;78.10
30594;DHT22;33199;47.590;8.300;2022-10-26T10:40:14;17.40;78.00
30594;DHT22;33199;47.590;8.300;2022-10-26T10:42:43;17.40;78.00
30594;DHT22;33199;47.590;8.300;2022-10-26T10:45:26;17.50;78.60
30594;DHT22;33199;47.590;8.300;2022-10-26T10:50:38;17.50;78.70
30594;DHT22;33199;47.590;8.300;2022-10-26T10:53:18;17.60;78.50
30594;DHT22;33199;47.590;8.300;2022-10-26T10:56:00;17.60;78.40
30594;DHT22;33199;47.590;8.300;2022-10-26T11:01:21;17.50;78.10
30594;DHT22;33199;47.590;8.300;2022-10-26T11:06:37;17.50;78.00
30594;DHT22;33199;47.590;8.300;2022-10-26T11:09:07;17.60;78.00
30594;DHT22;33199;47.590;8.300;2022-10-26T11:11:40;17.50;77.90
30594;DHT22;33199;47.590;8.300;2022-10-26T11:14:13;17.60;78.00
30594;DHT22;33199;47.590;8.300;2022-10-26T11:16:44;17.60;77.80
30594;DHT22;33199;47.590;8.300;2022-10-26T11:19:14;17.60;77.90
30594;DHT22;33199;47.590;8.300;2022-10-26T11:21:43;17.60;77.80
30594;DHT22;33199;47.590;8.300;2022-10-26T11:27:14;17.60;77.70
30594;DHT22;33199;47.590;8.300;2022-10-26T11:30:05;17.60;77.70
30594;DHT22;33199;47.590;8.300;2022-10-26T11:32:40;17.60;77.60
30594;DHT22;33199;47.590;8.300;2022-10-26T11:37:51;17.60;77.60
30594;DHT22;33199;47.590;8.300;2022-10-26T11:40:26;17.60;77.60
30594;DHT22;33199;47.590;8.300;2022-10-26T11:46:20;17.60;77.40
30594;DHT22;33199;47.590;8.300;2022-10-26T11:51:42;17.60;77.30
30594;DHT22;33199;47.590;8.300;2022-10-26T11:54:23;17.60;77.40
30594;DHT22;33199;47.590;8.300;2022-10-26T11:56:52;17.60;77.30
30594;DHT22;33199;47.590;8.300;2022-10-26T11:59:24;17.60;77.20
30594;DHT22;33199;47.590;8.300;2022-10-26T12:01:58;17.70;77.40
30594;DHT22;33199;47.590;8.300;2022-10-26T12:04:28;17.70;77.30
30594;DHT22;33199;47.590;8.300;2022-10-26T12:06:55;17.70;77.30
30594;DHT22;33199;47.590;8.300;2022-10-26T12:09:27;17.70;77.40
30594;DHT22;33199;47.590;8.300;2022-10-26T12:12:16;17.70;77.40
30594;DHT22;33199;47.590;8.300;2022-10-26T12:14:58;17.70;77.30
30594;DHT22;33199;47.590;8.300;2022-10-26T12:22:36;17.70;77.20
30594;DHT22;33199;47.590;8.300;2022-10-26T12:35:39;17.70;77.00
30594;DHT22;33199;47.590;8.300;2022-10-26T12:48:47;18.00;76.40
30594;DHT22;33199;47.590;8.300;2022-10-26T12:56:54;17.90;76.60
30594;DHT22;33199;47.590;8.300;2022-10-26T12:59:28;17.90;77.30
30594;DHT22;33199;47.590;8.300;2022-10-26T13:07:39;17.90;76.80
30594;DHT22;33199;47.590;8.300;2022-10-26T13:12:57;17.90;76.90
30594;DHT22;33199;47.590;8.300;2022-10-26T13:15:27;17.90;76.80
30594;DHT22;33199;47.590;8.300;2022-10-26T13:20:23;17.90;77.00
30594;DHT22;33199;47.590;8.300;2022-10-26T13:22:49;17.90;76.90
30594;DHT22;33199;47.590;8.300;2022-10-26T13:25:23;17.90;76.80
30594;DHT22;33199;47.590;8.300;2022-10-26T13:28:29;18.00;77.00
30594;DHT22;33199;47.590;8.300;2022-10-26T13:30:52;17.90;76.70
30594;DHT22;33199;47.590;8.300;2022-10-26T13:33:22;17.90;76.80
30594;DHT22;33199;47.590;8.300;2022-10-26T13:35:55;17.90;76.90
30594;DHT22;33199;47.590;8.300;2022-10-26T13:38:27;17.90;76.90
30594;DHT22;33199;47.590;8.300;2022-10-26T13:41:02;17.90;76.80
30594;DHT22;33199;47.590;8.300;2022-10-26T13:43:30;17.90;76.80
30594;DHT22;33199;47.590;8.300;2022-10-26T13:45:58;18.00;76.90
30594;DHT22;33199;47.590;8.300;2022-10-26T13:48:35;17.90;76.80
30594;DHT22;33199;47.590;8.300;2022-10-26T13:51:09;18.00;76.90
30594;DHT22;33199;47.590;8.300;2022-10-26T13:53:39;17.90;76.70
30594;DHT22;33199;47.590;8.300;2022-10-26T13:58:59;18.00;76.80
30594;DHT22;33199;47.590;8.300;2022-10-26T14:01:27;17.90;76.80
30594;DHT22;33199;47.590;8.300;2022-10-26T14:03:53;18.00;76.80
30594;DHT22;33199;47.590;8.300;2022-10-26T14:06:38;18.00;76.80
30594;DHT22;33199;47.590;8.300;2022-10-26T14:09:12;18.00;76.80
30594;DHT22;33199;47.590;8.300;2022-10-26T14:11:59;18.00;76.90
30594;DHT22;33199;47.590;8.300;2022-10-26T14:14:28;18.00;76.80
30594;DHT22;33199;47.590;8.300;2022-10-26T14:16:55;18.00;76.80
30594;DHT22;33199;47.590;8.300;2022-10-26T14:21:55;18.00;76.80
30594;DHT22;33199;47.590;8.300;2022-10-26T14:24:35;18.00;76.80
30594;DHT22;33199;47.590;8.300;2022-10-26T14:27:23;18.00;76.80
30594;DHT22;33199;47.590;8.300;2022-10-26T14:29:53;18.00;76.80
30594;DHT22;33199;47.590;8.300;2022-10-26T14:32:30;18.00;76.90
30594;DHT22;33199;47.590;8.300;2022-10-26T14:34:58;18.00;76.90
30594;DHT22;33199;47.590;8.300;2022-10-26T14:37:38;18.00;76.80
30594;DHT22;33199;47.590;8.300;2022-10-26T14:40:16;18.00;76.80
30594;DHT22;33199;47.590;8.300;2022-10-26T14:42:44;18.00;76.70
30594;DHT22;33199;47.590;8.300;2022-10-26T14:47:48;18.00;76.50
30594;DHT22;33199;47.590;8.300;2022-10-26T14:50:19;18.10;76.70
30594;DHT22;33199;47.590;8.300;2022-10-26T14:52:50;18.00;76.50
30594;DHT22;33199;47.590;8.300;2022-10-26T14:55:17;18.10;76.60
30594;DHT22;33199;47.590;8.300;2022-10-26T14:57:45;18.10;76.60
30594;DHT22;33199;47.590;8.300;2022-10-26T15:00:12;18.10;76.60
30594;DHT22;33199;47.590;8.300;2022-10-26T15:02:40;18.10;76.60
30594;DHT22;33199;47.590;8.300;2022-10-26T15:05:28;18.10;76.70
30594;DHT22;33199;47.590;8.300;2022-10-26T15:07:54;18.10;76.70
30594;DHT22;33199;47.590;8.300;2022-10-26T15:13:29;18.10;76.60
30594;DHT22;33199;47.590;8.300;2022-10-26T15:16:17;18.10;76.70
30594;DHT22;33199;47.590;8.300;2022-10-26T15:18:46;18.10;76.60
30594;DHT22;33199;47.590;8.300;2022-10-26T15:23:52;18.10;76.60
30594;DHT22;33199;47.590;8.300;2022-10-26T15:26:19;18.20;78.60
30594;DHT22;33199;47.590;8.300;2022-10-26T15:28:45;18.30;78.50
30594;DHT22;33199;47.590;8.300;2022-10-26T15:36:22;18.40;77.50
30594;DHT22;33199;47.590;8.300;2022-10-26T15:38:48;18.40;77.30
30594;DHT22;33199;47.590;8.300;2022-10-26T15:41:25;18.40;77.40
30594;DHT22;33199;47.590;8.300;2022-10-26T15:43:53;18.40;77.30
30594;DHT22;33199;47.590;8.300;2022-10-26T15:46:29;18.40;77.30
30594;DHT22;33199;47.590;8.300;2022-10-26T15:48:59;18.30;77.20
30594;DHT22;33199;47.590;8.300;2022-10-26T15:51:26;18.30;77.40
30594;DHT22;33199;47.590;8.300;2022-10-26T15:53:52;18.30;77.40
30594;DHT22;33199;47.590;8.300;2022-10-26T15:56:20;18.30;77.30
30594;DHT22;33199;47.590;8.300;2022-10-26T15:58:48;18.30;77.50
30594;DHT22;33199;47.590;8.300;2022-10-26T16:01:18;18.30;77.50
30594;DHT22;33199;47.590;8.300;2022-10-26T16:03:44;18.20;77.40
30594;DHT22;33199;47.590;8.300;2022-10-26T16:06:18;18.30;77.20
30594;DHT22;33199;47.590;8.300;2022-10-26T16:08:49;18.30;77.10
30594;DHT22;33199;47.590;8.300;2022-10-26T16:11:16;18.20;77.00
30594;DHT22;33199;47.590;8.300;2022-10-26T16:13:41;18.20;77.00
30594;DHT22;33199;47.590;8.300;2022-10-26T16:16:26;18.20;77.00
30594;DHT22;33199;47.590;8.300;2022-10-26T16:18:53;18.20;77.00
30594;DHT22;33199;47.590;8.300;2022-10-26T16:21:20;18.20;77.00
30594;DHT22;33199;47.590;8.300;2022-10-26T16:23:48;18.20;77.00
30594;DHT22;33199;47.590;8.300;2022-10-26T16:26:14;18.20;77.00
30594;DHT22;33199;47.590;8.300;2022-10-26T16:28:40;18.20;77.00
30594;DHT22;33199;47.590;8.300;2022-10-26T16:31:11;18.20;77.00
30594;DHT22;33199;47.590;8.300;2022-10-26T16:33:37;18.20;77.10
30594;DHT22;33199;47.590;8.300;2022-10-26T16:36:03;18.20;77.10
30594;DHT22;33199;47.590;8.300;2022-10-26T16:38:30;18.20;77.00
30594;DHT22;33199;47.590;8.300;2022-10-26T16:41:10;18.20;76.90
30594;DHT22;33199;47.590;8.300;2022-10-26T16:43:38;18.20;76.90
30594;DHT22;33199;47.590;8.300;2022-10-26T16:46:05;18.20;76.80
30594;DHT22;33199;47.590;8.300;2022-10-26T16:48:31;18.20;76.80
30594;DHT22;33199;47.590;8.300;2022-10-26T16:51:13;18.20;76.80
30594;DHT22;33199;47.590;8.300;2022-10-26T16:53:39;18.20;76.80
30594;DHT22;33199;47.590;8.300;2022-10-26T16:56:10;18.20;76.80
30594;DHT22;33199;47.590;8.300;2022-10-26T16:58:36;18.20;76.70
30594;DHT22;33199;47.590;8.300;2022-10-26T17:01:03;18.20;76.80
30594;DHT22;33199;47.590;8.300;2022-10-26T17:03:28;18.20;76.70
30594;DHT22;33199;47.590;8.300;2022-10-26T17:05:59;18.20;76.60
30594;DHT22;33199;47.590;8.300;2022-10-26T17:08:26;18.20;76.60
30594;DHT22;33199;47.590;8.300;2022-10-26T17:10:52;18.20;76.60
30594;DHT22;33199;47.590;8.300;2022-10-26T17:13:18;18.20;76.60
30594;DHT22;33199;47.590;8.300;2022-10-26T17:15:45;18.20;76.60
30594;DHT22;33199;47.590;8.300;2022-10-26T17:18:11;18.20;76.50
30594;DHT22;33199;47.590;8.300;2022-10-26T17:20:37;18.10;76.40
30594;DHT22;33199;47.590;8.300;2022-10-26T17:23:04;18.10;76.40
30594;DHT22;33199;47.590;8.300;2022-10-26T17:25:33;18.10;76.30
30594;DHT22;33199;47.590;8.300;2022-10-26T17:27:59;18.10;76.20
30594;DHT22;33199;47.590;8.300;2022-10-26T17:30:26;18.10;76.30
30594;DHT22;33199;47.590;8.300;2022-10-26T17:32:52;18.10;76.20
30594;DHT22;33199;47.590;8.300;2022-10-26T17:35:17;18.10;76.20
30594;DHT22;33199;47.590;8.300;2022-10-26T17:37:44;18.10;76.20
30594;DHT22;33199;47.590;8.300;2022-10-26T17:40:10;18.10;76.20
30594;DHT22;33199;47.590;8.300;2022-10-26T17:42:35;18.10;76.20
30594;DHT22;33199;47.590;8.300;2022-10-26T17:45:01;18.20;76.20
30594;DHT22;33199;47.590;8.300;2022-10-26T17:47:26;18.20;76.30
30594;DHT22;33199;47.590;8.300;2022-10-26T17:49:52;18.10;76.20
30594;DHT22;33199;47.590;8.300;2022-10-26T17:52:17;18.10;76.10
30594;DHT22;33199;47.590;8.300;2022-10-26T17:54:44;18.10;75.50
30594;DHT22;33199;47.590;8.300;2022-10-26T17:57:09;18.10;75.00
30594;DHT22;33199;47.590;8.300;2022-10-26T17:59:35;18.00;75.20
30594;DHT22;33199;47.590;8.300;2022-10-26T18:02:00;18.00;75.60